createdAt,value
2023-05-22T00:02:12.383Z,12.80
2023-05-22T00:04:40.767Z,12.80
2023-05-22T00:07:09.158Z,12.80
2023-05-22T00:09:37.425Z,12.80
2023-05-22T00:12:06.275Z,12.70
2023-05-22T00:14:34.614Z,12.70
2023-05-22T00:17:03.499Z,12.70
2023-05-22T00:19:33.214Z,12.60
2023-05-22T00:22:01.554Z,12.60
2023-05-22T00:24:29.804Z,12.50
2023-05-22T00:26:58.084Z,12.50
2023-05-22T00:29:26.403Z,12.50
2023-05-22T00:31:54.733Z,12.50
2023-05-22T00:34:22.999Z,12.40
2023-05-22T00:36:52.719Z,12.50
2023-05-22T00:39:21.351Z,12.40
2023-05-22T00:41:49.678Z,12.40
2023-05-22T00:44:18.005Z,12.40
2023-05-22T00:46:47.796Z,12.40
2023-05-22T00:49:16.142Z,12.40
2023-05-22T00:51:44.589Z,12.40
2023-05-22T00:54:15.059Z,12.40
2023-05-22T00:56:44.072Z,12.30
2023-05-22T00:59:12.675Z,12.30
2023-05-22T01:01:42.856Z,12.30
2023-05-22T01:04:13.090Z,12.30
2023-05-22T01:06:41.551Z,12.30
2023-05-22T01:09:10.125Z,12.30
2023-05-22T01:11:49.182Z,12.20
2023-05-22T01:14:25.602Z,12.20
2023-05-22T01:16:59.790Z,12.10
2023-05-22T01:20:01.203Z,12.10
2023-05-22T01:22:46.205Z,12.10
2023-05-22T01:25:30.058Z,12.10
2023-05-22T01:28:20.037Z,12.00
2023-05-22T01:31:01.621Z,12.00
2023-05-22T01:33:34.502Z,12.00
2023-05-22T01:36:04.744Z,12.00
2023-05-22T01:38:34.698Z,12.00
2023-05-22T01:41:03.379Z,12.00
2023-05-22T01:43:31.809Z,11.90
2023-05-22T01:46:03.155Z,12.00
2023-05-22T01:48:31.476Z,12.00
2023-05-22T01:51:03.991Z,11.90
2023-05-22T01:53:36.552Z,12.00
2023-05-22T01:56:08.560Z,12.00
2023-05-22T01:58:44.811Z,11.90
2023-05-22T02:01:16.200Z,11.90
2023-05-22T02:03:47.140Z,11.80
2023-05-22T02:06:18.219Z,11.80
2023-05-22T02:08:46.823Z,11.80
2023-05-22T02:11:17.282Z,11.80
2023-05-22T02:13:45.705Z,11.80
2023-05-22T02:16:15.601Z,11.70
2023-05-22T02:18:44.526Z,11.70
2023-05-22T02:21:12.888Z,11.70
2023-05-22T02:23:41.447Z,11.60
2023-05-22T02:26:09.907Z,11.60
2023-05-22T02:28:38.174Z,11.60
2023-05-22T02:31:07.952Z,11.60
2023-05-22T02:33:37.644Z,11.60
2023-05-22T02:36:10.794Z,11.60
2023-05-22T02:38:39.175Z,11.60
2023-05-22T02:41:08.376Z,11.60
2023-05-22T02:43:36.690Z,11.60
2023-05-22T02:46:05.019Z,11.50
2023-05-22T02:48:33.405Z,11.50
2023-05-22T02:51:03.546Z,11.50
2023-05-22T02:53:33.579Z,11.50
2023-05-22T02:56:01.939Z,11.50
2023-05-22T02:58:30.564Z,11.50
2023-05-22T03:00:58.847Z,11.50
2023-05-22T03:03:29.501Z,11.50
2023-05-22T03:05:58.841Z,11.50
2023-05-22T03:08:29.228Z,11.50
2023-05-22T03:10:58.208Z,11.50
2023-05-22T03:13:26.647Z,11.40
2023-05-22T03:15:55.093Z,11.40
2023-05-22T03:18:25.938Z,11.40
2023-05-22T03:20:55.718Z,11.40
2023-05-22T03:23:25.164Z,11.30
2023-05-22T03:25:55.309Z,11.40
2023-05-22T03:28:27.244Z,11.40
2023-05-22T03:30:55.692Z,11.40
2023-05-22T03:33:28.276Z,11.40
2023-05-22T03:35:57.357Z,11.40
2023-05-22T03:38:26.314Z,11.40
2023-05-22T03:40:56.022Z,11.40
2023-05-22T03:43:25.579Z,11.40
2023-05-22T03:45:53.879Z,11.40
2023-05-22T03:48:22.362Z,11.40
2023-05-22T03:50:51.147Z,11.40
2023-05-22T03:53:19.475Z,11.40
2023-05-22T03:55:47.732Z,11.40
2023-05-22T03:58:17.443Z,11.40
2023-05-22T04:00:46.255Z,11.40
2023-05-22T04:03:14.609Z,11.40
2023-05-22T04:05:42.915Z,11.40
2023-05-22T04:08:11.873Z,11.40
2023-05-22T04:10:40.459Z,11.40
2023-05-22T04:13:08.837Z,11.30
2023-05-22T04:15:38.532Z,11.30
2023-05-22T04:18:06.892Z,11.30
2023-05-22T04:20:35.680Z,11.30
2023-05-22T04:23:03.997Z,11.30
2023-05-22T04:25:34.266Z,11.30
2023-05-22T04:28:03.929Z,11.20
2023-05-22T04:30:34.074Z,11.20
2023-05-22T04:33:05.460Z,11.20
2023-05-22T04:35:34.254Z,11.20
2023-05-22T04:38:03.633Z,11.20
2023-05-22T04:40:33.390Z,11.20
2023-05-22T04:43:01.948Z,11.20
2023-05-22T04:45:33.006Z,11.20
2023-05-22T04:48:02.770Z,11.20
2023-05-22T04:50:38.863Z,11.20
2023-05-22T04:53:07.697Z,11.20
2023-05-22T04:55:37.035Z,11.20
2023-05-22T04:58:05.889Z,11.20
2023-05-22T05:00:34.469Z,11.20
2023-05-22T05:03:03.223Z,11.20
2023-05-22T05:05:31.853Z,11.20
2023-05-22T05:08:01.932Z,11.20
2023-05-22T05:10:30.401Z,11.30
2023-05-22T05:12:58.751Z,11.30
2023-05-22T05:15:27.629Z,11.30
2023-05-22T05:17:56.437Z,11.30
2023-05-22T05:20:25.354Z,11.30
2023-05-22T05:22:53.677Z,11.30
2023-05-22T05:25:23.665Z,11.40
2023-05-22T05:27:52.051Z,11.40
2023-05-22T05:30:22.242Z,11.40
2023-05-22T05:33:10.426Z,11.50
2023-05-22T05:35:58.170Z,11.50
2023-05-22T05:38:26.925Z,11.60
2023-05-22T05:40:57.883Z,11.60
2023-05-22T05:43:27.108Z,11.60
2023-05-22T05:46:53.820Z,11.60
2023-05-22T05:49:54.528Z,11.70
2023-05-22T05:52:55.002Z,11.80
2023-05-22T05:59:28.706Z,11.90
2023-05-22T06:02:44.595Z,11.90
2023-05-22T06:05:44.060Z,12.10
2023-05-22T06:15:14.970Z,12.30
2023-05-22T06:17:50.878Z,12.40
2023-05-22T06:20:28.667Z,12.40
2023-05-22T06:23:16.233Z,12.50
2023-05-22T06:29:05.943Z,12.60
2023-05-22T06:29:44.487Z,12.70
2023-05-22T06:33:56.737Z,12.90
2023-05-22T06:38:06.070Z,13.00
2023-05-22T06:52:22.996Z,14.00
2023-05-22T09:22:41.029Z,22.90
2023-05-22T09:26:11.650Z,22.10
2023-05-22T09:30:00.413Z,22.10
2023-05-22T10:09:35.553Z,27.30
2023-05-22T10:17:54.998Z,26.10
2023-05-22T10:25:40.156Z,24.40
2023-05-22T10:38:02.199Z,24.40
2023-05-22T10:54:58.219Z,25.40
2023-05-22T11:20:27.299Z,25.30
2023-05-22T11:29:22.469Z,25.80
2023-05-22T11:54:14.703Z,24.60
2023-05-22T11:57:58.798Z,24.80
2023-05-22T12:00:32.153Z,24.80
2023-05-22T12:37:04.273Z,23.70
2023-05-22T12:37:41.539Z,23.90
2023-05-22T12:44:46.737Z,23.70
2023-05-22T12:50:16.881Z,23.70
2023-05-22T12:54:00.238Z,23.60
2023-05-22T13:37:12.913Z,23.60
2023-05-22T13:40:02.792Z,23.60
2023-05-22T13:42:41.290Z,23.60
2023-05-22T13:45:13.694Z,23.60
2023-05-22T13:47:56.661Z,23.60
2023-05-22T13:50:41.147Z,23.80
2023-05-22T13:53:38.243Z,23.60
2023-05-22T13:56:18.952Z,23.50
2023-05-22T13:59:34.498Z,23.40
2023-05-22T14:02:07.398Z,23.40
2023-05-22T14:04:48.599Z,23.40
2023-05-22T14:07:34.708Z,23.40
2023-05-22T14:10:05.342Z,23.30
2023-05-22T14:12:46.445Z,23.30
2023-05-22T14:15:18.599Z,23.30
2023-05-22T14:18:21.828Z,23.20
2023-05-22T14:21:15.641Z,23.00
2023-05-22T14:23:49.095Z,23.00
2023-05-22T14:26:24.356Z,23.00
2023-05-22T14:28:54.032Z,23.00
2023-05-22T14:31:24.634Z,23.00
2023-05-22T14:33:59.293Z,23.00
2023-05-22T14:36:31.407Z,23.00
2023-05-22T14:39:01.777Z,22.90
2023-05-22T14:41:37.329Z,22.80
2023-05-22T14:44:07.553Z,22.70
2023-05-22T14:46:36.585Z,22.50
2023-05-22T14:49:07.738Z,22.40
2023-05-22T14:57:17.057Z,22.30
2023-05-22T15:00:01.910Z,22.20
2023-05-22T15:02:42.082Z,22.20
2023-05-22T15:51:21.211Z,21.60
2023-05-22T19:33:25.731Z,17.90
2023-05-22T19:35:55.735Z,17.80
2023-05-22T19:38:24.504Z,17.80
2023-05-22T19:40:55.784Z,17.70
2023-05-22T19:43:26.959Z,17.60
2023-05-22T19:45:55.745Z,17.50
2023-05-22T19:48:29.503Z,17.50
2023-05-22T19:51:00.076Z,17.50
2023-05-22T19:53:29.091Z,17.50
2023-05-22T19:56:54.829Z,17.40
2023-05-22T19:59:23.569Z,17.40
2023-05-22T20:02:11.073Z,17.30
2023-05-22T20:04:43.000Z,17.30
2023-05-22T20:07:13.585Z,17.20
2023-05-22T20:09:42.099Z,17.20
2023-05-22T20:12:10.866Z,17.10
2023-05-22T20:14:39.492Z,17.10
2023-05-22T20:17:10.516Z,17.00
2023-05-22T20:19:39.169Z,17.00
2023-05-22T20:23:06.625Z,16.90
2023-05-22T20:25:37.749Z,16.90
2023-05-22T20:28:12.078Z,16.80
2023-05-22T20:30:40.903Z,16.70
2023-05-22T20:33:09.615Z,16.70
2023-05-22T20:35:38.455Z,16.60
2023-05-22T20:38:08.772Z,16.50
2023-05-22T20:40:46.609Z,16.50
2023-05-22T20:43:16.036Z,16.40
2023-05-22T20:45:45.990Z,16.40
2023-05-22T20:49:08.954Z,16.40
2023-05-22T20:51:37.690Z,16.30
2023-05-22T20:54:09.335Z,16.30
2023-05-22T20:56:39.434Z,16.30
2023-05-22T20:59:10.644Z,16.30
2023-05-22T21:01:39.960Z,16.20
2023-05-22T21:04:08.535Z,16.10
2023-05-22T21:06:37.176Z,16.10
2023-05-22T21:09:05.622Z,16.00
2023-05-22T21:11:34.067Z,16.00
2023-05-22T21:14:03.833Z,15.90
2023-05-22T21:16:32.248Z,15.90
2023-05-22T21:19:00.786Z,15.90
2023-05-22T21:21:29.298Z,15.90
2023-05-22T21:23:57.669Z,15.80
2023-05-22T21:26:26.069Z,15.70
2023-05-22T21:28:54.665Z,15.70
2023-05-22T21:31:24.402Z,15.70
2023-05-22T21:33:52.770Z,15.60
2023-05-22T21:36:22.403Z,15.60
2023-05-22T21:38:50.723Z,15.50
2023-05-22T21:41:19.013Z,15.50
2023-05-22T21:43:47.895Z,15.40
2023-05-22T21:46:16.167Z,15.40
2023-05-22T21:48:46.172Z,15.40
2023-05-22T21:51:14.827Z,15.30
2023-05-22T21:53:43.193Z,15.30
2023-05-22T21:56:11.468Z,15.30
2023-05-22T21:58:39.706Z,15.30
2023-05-22T22:01:08.008Z,15.30
2023-05-22T22:03:38.702Z,15.20
2023-05-22T22:06:08.972Z,15.20
2023-05-22T22:08:37.333Z,15.20
2023-05-22T22:11:06.600Z,15.20
2023-05-22T22:13:34.967Z,15.20
2023-05-22T22:16:03.293Z,15.10
2023-05-22T22:18:33.440Z,15.10
2023-05-22T22:21:02.326Z,15.10
2023-05-22T22:23:32.107Z,15.10
2023-05-22T22:26:00.417Z,15.10
2023-05-22T22:28:29.154Z,15.10
2023-05-22T22:30:57.406Z,15.00
2023-05-22T22:33:25.732Z,15.00
2023-05-22T22:35:54.186Z,14.90
2023-05-22T22:38:22.429Z,14.80
2023-05-22T22:40:52.090Z,14.80
2023-05-22T22:43:20.383Z,14.80
2023-05-22T22:45:48.706Z,14.70
2023-05-22T22:48:17.569Z,14.70
2023-05-22T22:50:46.787Z,14.70
2023-05-22T22:53:14.999Z,14.60
2023-05-22T22:55:43.546Z,14.60
2023-05-22T22:58:13.397Z,14.60
2023-05-22T23:00:41.835Z,14.50
2023-05-22T23:03:10.177Z,14.50
2023-05-22T23:05:38.779Z,14.50
2023-05-22T23:08:07.250Z,14.50
2023-05-22T23:10:35.538Z,14.50
2023-05-22T23:13:03.878Z,14.50
2023-05-22T23:15:34.249Z,14.60
2023-05-22T23:18:02.698Z,14.60
2023-05-22T23:20:31.056Z,14.60
2023-05-22T23:22:59.343Z,14.60
2023-05-22T23:25:27.600Z,14.50
2023-05-22T23:27:55.871Z,14.50
2023-05-22T23:30:24.183Z,14.60
2023-05-22T23:32:53.925Z,14.50
2023-05-22T23:35:22.367Z,14.60
2023-05-22T23:37:50.678Z,14.60
2023-05-22T23:40:19.038Z,14.60
2023-05-22T23:42:47.337Z,14.50
2023-05-22T23:45:15.626Z,14.50
2023-05-22T23:47:43.902Z,14.50
2023-05-22T23:50:13.748Z,14.50
2023-05-22T23:52:42.116Z,14.50
2023-05-22T23:55:10.791Z,14.50
2023-05-22T23:57:39.149Z,14.50
